createdAt,value
2022-08-31T00:00:40.338Z,0.00
2022-08-31T00:01:40.362Z,0.00
2022-08-31T00:02:40.323Z,0.00
2022-08-31T00:03:40.318Z,0.00
2022-08-31T00:04:40.342Z,0.00
2022-08-31T00:05:40.296Z,0.00
2022-08-31T00:06:40.321Z,0.00
2022-08-31T00:07:40.455Z,0.00
2022-08-31T00:08:40.272Z,0.00
2022-08-31T00:09:40.267Z,0.00
2022-08-31T00:10:40.258Z,0.00
2022-08-31T00:11:40.273Z,0.00
2022-08-31T00:12:40.256Z,0.00
2022-08-31T00:13:40.227Z,0.00
2022-08-31T00:14:40.222Z,0.00
2022-08-31T00:15:40.219Z,0.00
2022-08-31T00:16:40.268Z,0.00
2022-08-31T00:17:40.211Z,0.00
2022-08-31T00:18:40.194Z,0.00
2022-08-31T00:19:40.195Z,0.00
2022-08-31T00:20:40.180Z,0.00
2022-08-31T00:21:40.197Z,0.00
2022-08-31T00:22:40.175Z,0.00
2022-08-31T00:23:40.158Z,0.00
2022-08-31T00:24:40.154Z,0.00
2022-08-31T00:25:40.142Z,0.00
2022-08-31T00:26:40.158Z,0.00
2022-08-31T00:27:40.132Z,0.00
2022-08-31T00:28:40.117Z,0.00
2022-08-31T00:29:40.109Z,0.00
2022-08-31T00:30:40.104Z,0.00
2022-08-31T00:31:40.189Z,0.00
2022-08-31T00:32:40.094Z,0.00
2022-08-31T00:33:40.077Z,0.00
2022-08-31T00:34:40.077Z,0.00
2022-08-31T00:35:40.067Z,0.00
2022-08-31T00:36:40.085Z,0.00
2022-08-31T00:37:40.050Z,0.00
2022-08-31T00:38:40.041Z,0.00
2022-08-31T00:39:40.052Z,0.00
2022-08-31T00:40:44.463Z,0.00
2022-08-31T00:41:41.050Z,0.00
2022-08-31T00:42:40.006Z,0.00
2022-08-31T00:43:40.015Z,0.00
2022-08-31T00:44:39.995Z,0.00
2022-08-31T00:45:40.026Z,0.00
2022-08-31T00:46:39.975Z,0.00
2022-08-31T00:47:39.992Z,0.00
2022-08-31T00:48:39.965Z,0.00
2022-08-31T00:49:39.953Z,0.00
2022-08-31T00:50:39.939Z,0.00
2022-08-31T00:51:39.933Z,0.00
2022-08-31T00:52:39.954Z,0.00
2022-08-31T00:53:39.916Z,0.00
2022-08-31T00:54:39.909Z,0.00
2022-08-31T00:55:39.904Z,0.00
2022-08-31T00:56:39.895Z,0.00
2022-08-31T00:57:39.918Z,0.00
2022-08-31T00:58:39.885Z,0.00
2022-08-31T00:59:39.869Z,0.00
2022-08-31T01:00:39.889Z,0.00
2022-08-31T01:01:39.855Z,0.00
2022-08-31T01:02:39.923Z,0.00
2022-08-31T01:03:39.844Z,0.00
2022-08-31T01:04:39.846Z,0.00
2022-08-31T01:05:39.834Z,0.00
2022-08-31T01:06:39.823Z,0.00
2022-08-31T01:07:39.851Z,0.00
2022-08-31T01:08:39.805Z,0.00
2022-08-31T01:09:39.800Z,0.00
2022-08-31T01:10:40.790Z,0.00
2022-08-31T01:11:39.773Z,0.00
2022-08-31T01:12:39.801Z,0.00
2022-08-31T01:13:39.765Z,0.00
2022-08-31T01:14:39.759Z,0.00
2022-08-31T01:15:39.751Z,0.00
2022-08-31T01:16:39.782Z,0.00
2022-08-31T01:17:39.758Z,0.00
2022-08-31T01:18:39.741Z,0.00
2022-08-31T01:19:39.719Z,0.00
2022-08-31T01:20:45.751Z,0.00
2022-08-31T01:21:40.700Z,0.00
2022-08-31T01:22:39.723Z,0.00
2022-08-31T01:23:39.685Z,0.00
2022-08-31T01:24:39.680Z,0.00
2022-08-31T01:25:39.671Z,0.00
2022-08-31T01:26:39.668Z,0.00
2022-08-31T01:27:39.681Z,0.00
2022-08-31T01:28:39.652Z,0.00
2022-08-31T01:29:39.642Z,0.00
2022-08-31T01:30:39.641Z,0.00
2022-08-31T01:31:39.686Z,0.00
2022-08-31T01:32:39.644Z,0.00
2022-08-31T01:33:39.609Z,0.00
2022-08-31T01:34:39.597Z,0.00
2022-08-31T01:35:39.596Z,0.00
2022-08-31T01:36:39.598Z,0.00
2022-08-31T01:37:39.609Z,0.00
2022-08-31T01:38:39.577Z,0.00
2022-08-31T01:39:39.561Z,0.00
2022-08-31T01:40:39.597Z,0.00
2022-08-31T01:41:39.547Z,0.00
2022-08-31T01:42:39.591Z,0.00
2022-08-31T01:43:39.536Z,0.00
2022-08-31T01:44:39.530Z,0.00
2022-08-31T01:45:39.521Z,0.00
2022-08-31T01:46:39.543Z,0.00
2022-08-31T01:47:39.534Z,0.00
2022-08-31T01:48:41.509Z,0.00
2022-08-31T01:49:39.494Z,0.00
2022-08-31T01:50:39.483Z,0.00
2022-08-31T01:51:39.476Z,0.00
2022-08-31T01:52:39.490Z,0.00
2022-08-31T01:53:39.455Z,0.00
2022-08-31T01:54:39.455Z,0.00
2022-08-31T01:55:39.447Z,0.00
2022-08-31T01:56:39.433Z,0.00
2022-08-31T01:57:39.456Z,0.00
2022-08-31T01:58:39.421Z,0.00
2022-08-31T01:59:39.404Z,0.00
2022-08-31T02:00:39.480Z,0.00
2022-08-31T02:01:39.517Z,0.00
2022-08-31T02:02:40.456Z,0.00
2022-08-31T02:03:39.375Z,0.00
2022-08-31T02:04:39.369Z,0.00
2022-08-31T02:05:39.358Z,0.00
2022-08-31T02:06:39.357Z,0.00
2022-08-31T02:07:39.384Z,0.00
2022-08-31T02:08:39.341Z,0.00
2022-08-31T02:09:39.332Z,0.00
2022-08-31T02:10:39.328Z,0.00
2022-08-31T02:11:39.316Z,0.00
2022-08-31T02:12:39.331Z,0.00
2022-08-31T02:13:39.312Z,0.00
2022-08-31T02:14:39.293Z,0.00
2022-08-31T02:15:39.286Z,0.00
2022-08-31T02:16:39.358Z,0.00
2022-08-31T02:17:39.297Z,0.00
2022-08-31T02:18:39.257Z,0.00
2022-08-31T02:19:39.247Z,0.00
2022-08-31T02:20:39.248Z,0.00
2022-08-31T02:21:39.241Z,0.00
2022-08-31T02:22:39.259Z,0.00
2022-08-31T02:23:39.219Z,0.00
2022-08-31T02:24:39.221Z,0.00
2022-08-31T02:25:39.214Z,0.00
2022-08-31T02:26:39.206Z,0.00
2022-08-31T02:27:39.192Z,0.00
2022-08-31T02:28:39.204Z,0.00
2022-08-31T02:29:39.175Z,0.00
2022-08-31T02:30:39.170Z,0.00
2022-08-31T02:31:39.230Z,0.00
2022-08-31T02:32:39.155Z,0.00
2022-08-31T02:33:39.174Z,0.00
2022-08-31T02:34:39.141Z,0.00
2022-08-31T02:35:39.164Z,0.00
2022-08-31T02:36:39.124Z,0.00
2022-08-31T02:37:39.126Z,0.00
2022-08-31T02:38:39.142Z,0.00
2022-08-31T02:39:39.099Z,0.00
2022-08-31T02:40:39.135Z,0.00
2022-08-31T02:41:39.079Z,0.00
2022-08-31T02:42:52.988Z,0.00
2022-08-31T02:43:40.093Z,0.00
2022-08-31T02:44:39.059Z,0.00
2022-08-31T02:45:39.046Z,0.00
2022-08-31T02:46:39.111Z,0.00
2022-08-31T02:47:39.029Z,0.00
2022-08-31T02:48:39.059Z,0.00
2022-08-31T02:49:39.009Z,0.00
2022-08-31T02:50:39.004Z,0.00
2022-08-31T02:51:39.005Z,0.00
2022-08-31T02:52:38.991Z,0.00
2022-08-31T02:53:39.009Z,0.00
2022-08-31T02:54:38.987Z,0.00
2022-08-31T02:55:38.967Z,0.00
2022-08-31T02:56:38.957Z,0.00
2022-08-31T02:57:38.955Z,0.00
2022-08-31T02:58:38.969Z,0.00
2022-08-31T02:59:38.936Z,0.00
2022-08-31T03:00:38.935Z,0.00
2022-08-31T03:01:39.020Z,0.00
2022-08-31T03:02:38.992Z,0.00
2022-08-31T03:03:38.938Z,0.00
2022-08-31T03:04:38.909Z,0.00
2022-08-31T03:05:38.891Z,0.00
2022-08-31T03:06:38.879Z,0.00
2022-08-31T03:07:38.874Z,0.00
2022-08-31T03:08:38.896Z,0.00
2022-08-31T03:09:38.862Z,0.00
2022-08-31T03:10:38.851Z,0.00
2022-08-31T03:11:38.845Z,0.00
2022-08-31T03:12:38.835Z,0.00
2022-08-31T03:13:38.852Z,0.00
2022-08-31T03:14:38.826Z,0.00
2022-08-31T03:15:38.844Z,0.00
2022-08-31T03:16:38.803Z,0.00
2022-08-31T03:17:38.794Z,0.00
2022-08-31T03:18:38.810Z,0.00
2022-08-31T03:19:38.773Z,0.00
2022-08-31T03:20:38.766Z,0.00
2022-08-31T03:21:38.753Z,0.00
2022-08-31T03:22:39.752Z,0.00
2022-08-31T03:23:38.771Z,0.00
2022-08-31T03:24:38.895Z,0.00
2022-08-31T03:25:39.697Z,0.00
2022-08-31T03:26:38.724Z,0.00
2022-08-31T03:27:38.718Z,0.00
2022-08-31T03:28:38.730Z,0.00
2022-08-31T03:29:38.699Z,0.00
2022-08-31T03:30:38.692Z,0.00
2022-08-31T03:31:38.724Z,0.00
2022-08-31T03:32:38.679Z,0.00
2022-08-31T03:33:38.693Z,0.00
2022-08-31T03:34:38.662Z,0.00
2022-08-31T03:35:38.660Z,0.00
2022-08-31T03:36:38.646Z,0.00
2022-08-31T03:37:38.634Z,0.00
2022-08-31T03:38:38.654Z,0.00
2022-08-31T03:39:38.627Z,0.00
2022-08-31T03:40:38.662Z,0.00
2022-08-31T03:41:38.602Z,0.00
2022-08-31T03:42:38.587Z,0.00
2022-08-31T03:43:39.611Z,0.00
2022-08-31T03:44:38.586Z,0.00
2022-08-31T03:45:38.577Z,0.00
2022-08-31T03:46:38.586Z,0.00
2022-08-31T03:47:44.723Z,0.00
2022-08-31T03:48:39.585Z,0.00
2022-08-31T03:49:38.550Z,0.00
2022-08-31T03:50:38.541Z,0.00
2022-08-31T03:51:38.529Z,0.00
2022-08-31T03:52:38.518Z,0.00
2022-08-31T03:53:38.532Z,0.00
2022-08-31T03:54:38.497Z,0.00
2022-08-31T03:55:38.500Z,0.00
2022-08-31T03:56:38.484Z,4.00
2022-08-31T03:57:38.474Z,0.00
2022-08-31T03:58:38.506Z,0.00
2022-08-31T03:59:38.461Z,0.00
2022-08-31T04:00:38.452Z,4.00
2022-08-31T04:01:38.504Z,0.00
2022-08-31T04:02:38.472Z,0.00
2022-08-31T04:03:38.460Z,4.00
2022-08-31T04:04:38.425Z,0.00
2022-08-31T04:05:38.411Z,4.00
2022-08-31T04:06:38.405Z,0.00
2022-08-31T04:07:42.713Z,4.00
2022-08-31T04:08:38.415Z,4.00
2022-08-31T04:09:38.381Z,4.00
2022-08-31T04:10:38.369Z,4.00
2022-08-31T04:11:45.301Z,8.00
2022-08-31T04:12:39.354Z,4.00
2022-08-31T04:13:38.377Z,12.00
2022-08-31T04:14:38.342Z,8.00
2022-08-31T04:15:38.402Z,12.00
2022-08-31T04:16:38.325Z,16.00
2022-08-31T04:17:38.312Z,20.00
2022-08-31T04:18:38.341Z,24.00
2022-08-31T04:19:38.302Z,28.00
2022-08-31T04:20:38.294Z,32.00
2022-08-31T04:21:38.276Z,36.00
2022-08-31T04:22:38.267Z,44.00
2022-08-31T04:23:39.309Z,40.00
2022-08-31T04:24:38.263Z,44.00
2022-08-31T04:25:38.249Z,44.00
2022-08-31T04:26:38.246Z,52.00
2022-08-31T04:27:38.259Z,56.00
2022-08-31T04:28:38.226Z,60.00
2022-08-31T04:29:38.250Z,68.00
2022-08-31T04:30:38.244Z,72.00
2022-08-31T04:31:38.207Z,80.00
2022-08-31T04:32:38.197Z,88.00
2022-08-31T04:33:38.192Z,92.00
2022-08-31T04:34:38.206Z,100.00
2022-08-31T04:35:38.165Z,104.00
2022-08-31T04:36:39.175Z,116.00
2022-08-31T04:37:38.161Z,128.00
2022-08-31T04:38:38.157Z,140.00
2022-08-31T04:39:49.519Z,144.00
2022-08-31T04:40:39.262Z,160.00
2022-08-31T04:41:38.125Z,172.00
2022-08-31T04:42:38.123Z,184.00
2022-08-31T04:43:38.112Z,200.00
2022-08-31T04:44:38.128Z,220.00
2022-08-31T04:45:38.123Z,240.00
2022-08-31T04:46:38.083Z,256.00
2022-08-31T04:47:38.083Z,276.00
2022-08-31T04:48:38.072Z,296.00
2022-08-31T04:49:38.090Z,312.00
2022-08-31T04:50:42.357Z,328.00
2022-08-31T04:51:39.040Z,352.00
2022-08-31T04:52:38.035Z,372.00
2022-08-31T04:53:38.059Z,392.00
2022-08-31T04:54:38.020Z,412.00
2022-08-31T04:55:38.014Z,436.00
2022-08-31T04:56:38.008Z,468.00
2022-08-31T04:57:37.990Z,500.00
2022-08-31T04:58:38.012Z,536.00
2022-08-31T04:59:37.982Z,576.00
2022-08-31T05:00:37.977Z,632.00
2022-08-31T05:01:42.857Z,708.00
2022-08-31T05:02:39.051Z,832.00
2022-08-31T05:03:37.970Z,1064.00
2022-08-31T05:04:37.933Z,1588.00
2022-08-31T05:05:37.930Z,1944.00
2022-08-31T05:06:37.918Z,1524.00
2022-08-31T05:07:37.911Z,1320.00
2022-08-31T05:08:37.930Z,1356.00
2022-08-31T05:09:37.897Z,1228.00
2022-08-31T05:10:37.898Z,1196.00
2022-08-31T05:11:37.880Z,1200.00
2022-08-31T05:12:37.869Z,1224.00
2022-08-31T05:13:37.895Z,1252.00
2022-08-31T05:14:37.860Z,1312.00
2022-08-31T05:15:37.865Z,1448.00
2022-08-31T05:16:37.835Z,1624.00
2022-08-31T05:17:38.834Z,1676.00
2022-08-31T05:18:37.828Z,1628.00
2022-08-31T05:19:40.991Z,1572.00
2022-08-31T05:20:38.812Z,1548.00
2022-08-31T05:21:37.804Z,1572.00
2022-08-31T05:22:37.799Z,1616.00
2022-08-31T05:23:37.782Z,1680.00
2022-08-31T05:24:37.806Z,1760.00
2022-08-31T05:25:37.768Z,1852.00
2022-08-31T05:26:38.057Z,1956.00
2022-08-31T05:27:37.754Z,2084.00
2022-08-31T05:28:37.750Z,2228.00
2022-08-31T05:29:37.766Z,2364.00
2022-08-31T05:30:37.787Z,2512.00
2022-08-31T05:31:37.727Z,2668.00
2022-08-31T05:32:37.758Z,2824.00
2022-08-31T05:33:37.708Z,2996.00
2022-08-31T05:34:37.734Z,3160.00
2022-08-31T05:35:37.694Z,3340.00
2022-08-31T05:36:37.689Z,3508.00
2022-08-31T05:37:37.674Z,3668.00
2022-08-31T05:38:37.664Z,3824.00
2022-08-31T05:39:37.688Z,3948.00
2022-08-31T05:40:37.696Z,4068.00
2022-08-31T05:41:37.642Z,4148.00
2022-08-31T05:42:37.634Z,4232.00
2022-08-31T05:43:37.620Z,4256.00
2022-08-31T05:44:38.652Z,4256.00
2022-08-31T05:45:37.613Z,4224.00
2022-08-31T05:46:37.663Z,4180.00
2022-08-31T05:47:37.590Z,4204.00
2022-08-31T05:48:37.597Z,4280.00
2022-08-31T05:49:37.605Z,4348.00
2022-08-31T05:50:37.571Z,4364.00
2022-08-31T05:51:38.493Z,4384.00
2022-08-31T05:52:38.558Z,4316.00
2022-08-31T05:53:37.543Z,4176.00
2022-08-31T05:54:37.565Z,4092.00
2022-08-31T05:55:37.532Z,4096.00
2022-08-31T05:56:37.524Z,4036.00
2022-08-31T05:57:37.518Z,3912.00
2022-08-31T05:58:37.509Z,3820.00
2022-08-31T05:59:37.526Z,3680.00
2022-08-31T06:00:37.494Z,3500.00
2022-08-31T06:01:37.522Z,3352.00
2022-08-31T06:02:37.479Z,3236.00
2022-08-31T06:03:37.476Z,3048.00
2022-08-31T06:04:37.488Z,2904.00
2022-08-31T06:05:37.500Z,2856.00
2022-08-31T06:06:38.447Z,2780.00
2022-08-31T06:07:37.443Z,2772.00
2022-08-31T06:08:37.437Z,2756.00
2022-08-31T06:09:37.451Z,2760.00
2022-08-31T06:10:37.427Z,2640.00
2022-08-31T06:11:37.408Z,2700.00
2022-08-31T06:12:37.404Z,2652.00
2022-08-31T06:13:37.394Z,2604.00
2022-08-31T06:14:38.794Z,2644.00
2022-08-31T06:15:42.201Z,2712.00
2022-08-31T06:16:38.435Z,2716.00
2022-08-31T06:17:37.365Z,2704.00
2022-08-31T06:18:37.352Z,2664.00
2022-08-31T06:19:37.381Z,2720.00
2022-08-31T06:20:37.344Z,2700.00
2022-08-31T06:21:37.327Z,2792.00
2022-08-31T06:22:37.331Z,2880.00
2022-08-31T06:23:37.341Z,2956.00
2022-08-31T06:24:37.309Z,3016.00
2022-08-31T06:25:37.332Z,3064.00
2022-08-31T06:26:37.297Z,3140.00
2022-08-31T06:27:37.284Z,3212.00
2022-08-31T06:28:37.278Z,3256.00
2022-08-31T06:29:37.307Z,3328.00
2022-08-31T06:30:47.802Z,3392.00
2022-08-31T06:31:38.275Z,3384.00
2022-08-31T06:32:37.241Z,3436.00
2022-08-31T06:33:37.234Z,3516.00
2022-08-31T06:34:37.227Z,3604.00
2022-08-31T06:35:37.244Z,3588.00
2022-08-31T06:36:37.214Z,3552.00
2022-08-31T06:37:37.210Z,3664.00
2022-08-31T06:38:37.194Z,3796.00
2022-08-31T06:39:37.191Z,4076.00
2022-08-31T06:40:37.310Z,4144.00
2022-08-31T06:41:37.177Z,4048.00
2022-08-31T06:42:37.160Z,3920.00
2022-08-31T06:43:37.160Z,4068.00
2022-08-31T06:44:37.148Z,4240.00
2022-08-31T06:45:37.163Z,4300.00
2022-08-31T06:46:37.197Z,4228.00
2022-08-31T06:47:37.126Z,4440.00
2022-08-31T06:48:37.122Z,4216.00
2022-08-31T06:49:37.104Z,4060.00
2022-08-31T06:50:37.125Z,4192.00
2022-08-31T06:51:37.101Z,4568.00
2022-08-31T06:52:39.094Z,4628.00
2022-08-31T06:53:38.074Z,4724.00
2022-08-31T06:54:37.062Z,4916.00
2022-08-31T06:55:37.089Z,4928.00
2022-08-31T06:56:37.053Z,4592.00
2022-08-31T06:57:37.046Z,4564.00
2022-08-31T06:58:37.035Z,4576.00
2022-08-31T06:59:37.055Z,4568.00
2022-08-31T07:00:37.016Z,4628.00
2022-08-31T07:01:37.063Z,4612.00
2022-08-31T07:02:37.089Z,4732.00
2022-08-31T07:03:37.003Z,4752.00
2022-08-31T07:04:37.018Z,4716.00
2022-08-31T07:05:36.984Z,4536.00
2022-08-31T07:06:36.977Z,4452.00
2022-08-31T07:07:36.979Z,4336.00
2022-08-31T07:08:36.956Z,4220.00
2022-08-31T07:09:36.968Z,4056.00
2022-08-31T07:10:36.947Z,4092.00
2022-08-31T07:11:39.829Z,4148.00
2022-08-31T07:12:37.925Z,4168.00
2022-08-31T07:13:36.927Z,4220.00
2022-08-31T07:14:36.965Z,4304.00
2022-08-31T07:15:36.906Z,4384.00
2022-08-31T07:16:37.032Z,4380.00
2022-08-31T07:17:36.891Z,4416.00
2022-08-31T07:18:36.888Z,4460.00
2022-08-31T07:19:36.915Z,4604.00
2022-08-31T07:20:36.864Z,4548.00
2022-08-31T07:21:36.854Z,4468.00
2022-08-31T07:22:36.853Z,4656.00
2022-08-31T07:23:36.845Z,4728.00
2022-08-31T07:24:36.861Z,4732.00
2022-08-31T07:25:36.822Z,4624.00
2022-08-31T07:26:36.851Z,4688.00
2022-08-31T07:27:36.811Z,5072.00
2022-08-31T07:28:36.804Z,4996.00
2022-08-31T07:29:36.829Z,4976.00
2022-08-31T07:30:36.855Z,5028.00
2022-08-31T07:31:36.785Z,5392.00
2022-08-31T07:32:36.777Z,5420.00
2022-08-31T07:33:36.767Z,6004.00
2022-08-31T07:34:36.785Z,6472.00
2022-08-31T07:35:36.745Z,6452.00
2022-08-31T07:36:36.742Z,6124.00
2022-08-31T07:37:36.734Z,5816.00
2022-08-31T07:38:36.883Z,6788.00
2022-08-31T07:39:36.719Z,7036.00
2022-08-31T07:40:36.786Z,7336.00
2022-08-31T07:41:36.707Z,7276.00
2022-08-31T07:42:36.687Z,6940.00
2022-08-31T07:43:36.682Z,7300.00
2022-08-31T07:44:36.685Z,7040.00
2022-08-31T07:45:39.119Z,6816.00
2022-08-31T07:46:37.703Z,7236.00
2022-08-31T07:47:36.651Z,7108.00
2022-08-31T07:48:36.643Z,7048.00
2022-08-31T07:49:36.630Z,7248.00
2022-08-31T07:50:36.660Z,7252.00
2022-08-31T07:51:36.614Z,7256.00
2022-08-31T07:52:36.605Z,7296.00
2022-08-31T07:53:36.602Z,7528.00
2022-08-31T07:54:36.590Z,7428.00
2022-08-31T07:55:36.610Z,7912.00
2022-08-31T07:56:36.581Z,7996.00
2022-08-31T07:57:36.576Z,8400.00
2022-08-31T07:58:36.565Z,8164.00
2022-08-31T07:59:36.554Z,8240.00
2022-08-31T08:00:36.572Z,8388.00
2022-08-31T08:01:36.588Z,7916.00
2022-08-31T08:02:36.705Z,8348.00
2022-08-31T08:03:36.521Z,8580.00
2022-08-31T08:04:36.513Z,8468.00
2022-08-31T08:05:36.540Z,8664.00
2022-08-31T08:06:36.498Z,8772.00
2022-08-31T08:07:36.498Z,8636.00
2022-08-31T08:08:36.485Z,9428.00
2022-08-31T08:09:36.471Z,9908.00
2022-08-31T08:10:36.495Z,10084.00
2022-08-31T08:11:36.455Z,9652.00
2022-08-31T08:12:36.450Z,9380.00
2022-08-31T08:13:36.443Z,8868.00
2022-08-31T08:14:36.441Z,8496.00
2022-08-31T08:15:36.456Z,8996.00
2022-08-31T08:16:36.481Z,9820.00
2022-08-31T08:17:36.413Z,9876.00
2022-08-31T08:18:36.402Z,9120.00
2022-08-31T08:19:36.395Z,8940.00
2022-08-31T08:20:38.292Z,9720.00
2022-08-31T08:21:36.380Z,10188.00
2022-08-31T08:22:51.319Z,10856.00
2022-08-31T08:23:38.374Z,11208.00
2022-08-31T08:24:36.361Z,11760.00
2022-08-31T08:25:36.387Z,11464.00
2022-08-31T08:26:36.342Z,11720.00
2022-08-31T08:27:36.342Z,11788.00
2022-08-31T08:28:39.732Z,12000.00
2022-08-31T08:29:37.313Z,12736.00
2022-08-31T08:30:36.338Z,12524.00
2022-08-31T08:31:36.344Z,12132.00
2022-08-31T08:32:36.302Z,12944.00
2022-08-31T08:33:36.288Z,14380.00
2022-08-31T08:34:36.279Z,13144.00
2022-08-31T08:35:36.302Z,13084.00
2022-08-31T08:36:36.260Z,13176.00
2022-08-31T08:37:57.126Z,13868.00
2022-08-31T08:38:38.246Z,14540.00
2022-08-31T08:39:36.247Z,15600.00
2022-08-31T08:40:36.317Z,18496.00
2022-08-31T08:41:36.229Z,15804.00
2022-08-31T08:42:36.218Z,20544.00
2022-08-31T08:43:36.206Z,21216.00
2022-08-31T08:44:36.205Z,18208.00
2022-08-31T08:45:36.254Z,23360.00
2022-08-31T08:46:36.262Z,20544.00
2022-08-31T08:47:38.793Z,25824.00
2022-08-31T08:48:36.167Z,27360.00
2022-08-31T08:49:36.161Z,24896.00
2022-08-31T08:50:36.153Z,23104.00
2022-08-31T08:51:36.175Z,21888.00
2022-08-31T08:52:36.137Z,20544.00
2022-08-31T08:53:36.130Z,15352.00
2022-08-31T08:54:36.116Z,16320.00
2022-08-31T08:55:36.141Z,14832.00
2022-08-31T08:56:36.120Z,17600.00
2022-08-31T08:57:36.098Z,18816.00
2022-08-31T08:58:36.087Z,18048.00
2022-08-31T08:59:36.108Z,16384.00
2022-08-31T09:00:36.098Z,18304.00
2022-08-31T09:01:36.135Z,16320.00
2022-08-31T09:02:36.130Z,17792.00
2022-08-31T09:03:36.048Z,15324.00
2022-08-31T09:04:36.045Z,16512.00
2022-08-31T09:05:36.069Z,14080.00
2022-08-31T09:06:46.009Z,13680.00
2022-08-31T09:07:37.017Z,12804.00
2022-08-31T09:08:36.014Z,12732.00
2022-08-31T09:09:36.007Z,13756.00
2022-08-31T09:10:36.033Z,15156.00
2022-08-31T09:11:35.991Z,15180.00
2022-08-31T09:12:35.985Z,15540.00
2022-08-31T09:13:35.969Z,14940.00
2022-08-31T09:14:35.964Z,15168.00
2022-08-31T09:15:36.039Z,14424.00
2022-08-31T09:16:36.031Z,14768.00
2022-08-31T09:17:35.941Z,14484.00
2022-08-31T09:18:35.935Z,13544.00
2022-08-31T09:19:35.929Z,13280.00
2022-08-31T09:20:35.954Z,14272.00
2022-08-31T09:21:35.909Z,14272.00
2022-08-31T09:22:35.902Z,14476.00
2022-08-31T09:23:35.921Z,14060.00
2022-08-31T09:24:35.890Z,13612.00
2022-08-31T09:25:35.875Z,14048.00
2022-08-31T09:26:35.900Z,14908.00
2022-08-31T09:27:35.860Z,14572.00
2022-08-31T09:28:35.853Z,14916.00
2022-08-31T09:29:35.841Z,15056.00
2022-08-31T09:30:35.832Z,14988.00
2022-08-31T09:31:35.961Z,14544.00
2022-08-31T09:32:35.820Z,14924.00
2022-08-31T09:33:35.812Z,14984.00
2022-08-31T09:34:35.804Z,15112.00
2022-08-31T09:35:35.793Z,13920.00
2022-08-31T09:36:35.809Z,14092.00
2022-08-31T09:37:35.775Z,14520.00
2022-08-31T09:38:35.779Z,14788.00
2022-08-31T09:39:37.212Z,14480.00
2022-08-31T09:40:35.783Z,14488.00
2022-08-31T09:41:35.775Z,14204.00
2022-08-31T09:42:35.740Z,13592.00
2022-08-31T09:43:35.733Z,13524.00
2022-08-31T09:44:35.739Z,13512.00
2022-08-31T09:45:38.903Z,14188.00
2022-08-31T09:46:36.734Z,14696.00
2022-08-31T09:47:35.706Z,14800.00
2022-08-31T09:48:35.702Z,14748.00
2022-08-31T09:49:35.687Z,15468.00
2022-08-31T09:50:35.760Z,15884.00
2022-08-31T09:51:35.698Z,15884.00
2022-08-31T09:52:35.669Z,15656.00
2022-08-31T09:53:35.670Z,15244.00
2022-08-31T09:54:35.656Z,14748.00
2022-08-31T09:55:35.641Z,14256.00
2022-08-31T09:56:35.659Z,13696.00
2022-08-31T09:57:35.628Z,13604.00
2022-08-31T09:58:35.621Z,13320.00
2022-08-31T09:59:35.609Z,13416.00
2022-08-31T10:00:35.599Z,13308.00
2022-08-31T10:01:35.665Z,13424.00
2022-08-31T10:02:35.590Z,13264.00
2022-08-31T10:03:35.591Z,13580.00
2022-08-31T10:04:35.614Z,14040.00
2022-08-31T10:05:35.592Z,14392.00
2022-08-31T10:06:35.577Z,14716.00
2022-08-31T10:07:35.545Z,14692.00
2022-08-31T10:08:35.527Z,13968.00
2022-08-31T10:09:36.528Z,13696.00
2022-08-31T10:10:35.538Z,13128.00
2022-08-31T10:11:36.516Z,13060.00
2022-08-31T10:12:35.505Z,12460.00
2022-08-31T10:13:35.503Z,12656.00
2022-08-31T10:14:35.489Z,13324.00
2022-08-31T10:15:35.549Z,13064.00
2022-08-31T10:16:35.505Z,13504.00
2022-08-31T10:17:35.468Z,13476.00
2022-08-31T10:18:35.457Z,12956.00
2022-08-31T10:19:35.451Z,12996.00
2022-08-31T10:20:35.473Z,13208.00
2022-08-31T10:21:35.434Z,14156.00
2022-08-31T10:22:35.421Z,14420.00
2022-08-31T10:23:35.416Z,14956.00
2022-08-31T10:24:35.423Z,14840.00
2022-08-31T10:25:35.397Z,15432.00
2022-08-31T10:26:35.421Z,16032.00
2022-08-31T10:27:35.385Z,15776.00
2022-08-31T10:28:35.380Z,15684.00
2022-08-31T10:29:35.372Z,15736.00
2022-08-31T10:30:35.360Z,16608.00
2022-08-31T10:31:35.476Z,16416.00
2022-08-31T10:32:35.346Z,16352.00
2022-08-31T10:33:35.339Z,16736.00
2022-08-31T10:34:35.329Z,16800.00
2022-08-31T10:35:35.362Z,16160.00
2022-08-31T10:36:35.344Z,15700.00
2022-08-31T10:37:35.307Z,16320.00
2022-08-31T10:38:35.299Z,15708.00
2022-08-31T10:39:35.291Z,14568.00
2022-08-31T10:40:35.394Z,13952.00
2022-08-31T10:41:35.299Z,13104.00
2022-08-31T10:42:35.254Z,12860.00
2022-08-31T10:43:36.260Z,12964.00
2022-08-31T10:44:35.249Z,13472.00
2022-08-31T10:45:35.247Z,13252.00
2022-08-31T10:46:35.334Z,12564.00
2022-08-31T10:47:35.228Z,11388.00
2022-08-31T10:48:35.220Z,11188.00
2022-08-31T10:49:35.212Z,11036.00
2022-08-31T10:50:35.229Z,10912.00
2022-08-31T10:51:35.198Z,10700.00
2022-08-31T10:52:35.187Z,10816.00
2022-08-31T10:53:39.861Z,11208.00
2022-08-31T10:54:36.176Z,11592.00
2022-08-31T10:55:35.193Z,11920.00
2022-08-31T10:56:35.152Z,12344.00
2022-08-31T10:57:36.156Z,11536.00
2022-08-31T10:58:35.143Z,11192.00
2022-08-31T10:59:35.137Z,10948.00
2022-08-31T11:00:35.158Z,11636.00
2022-08-31T11:01:35.177Z,11480.00
2022-08-31T11:02:35.113Z,11808.00
2022-08-31T11:03:35.181Z,12512.00
2022-08-31T11:04:35.171Z,13016.00
2022-08-31T11:05:35.125Z,12816.00
2022-08-31T11:06:35.083Z,12596.00
2022-08-31T11:07:35.075Z,12768.00
2022-08-31T11:08:35.066Z,12372.00
2022-08-31T11:09:35.066Z,12268.00
2022-08-31T11:10:35.087Z,12148.00
2022-08-31T11:11:35.047Z,11528.00
2022-08-31T11:12:35.043Z,11064.00
2022-08-31T11:13:35.028Z,10924.00
2022-08-31T11:14:35.023Z,10784.00
2022-08-31T11:15:35.073Z,10744.00
2022-08-31T11:16:35.009Z,10540.00
2022-08-31T11:17:35.005Z,10456.00
2022-08-31T11:18:34.993Z,10596.00
2022-08-31T11:19:34.982Z,10652.00
2022-08-31T11:20:34.977Z,10836.00
2022-08-31T11:21:34.994Z,10560.00
2022-08-31T11:22:34.964Z,10312.00
2022-08-31T11:23:34.953Z,10360.00
2022-08-31T11:24:37.535Z,10232.00
2022-08-31T11:25:35.961Z,10380.00
2022-08-31T11:26:34.927Z,10636.00
2022-08-31T11:27:34.920Z,10660.00
2022-08-31T11:28:34.915Z,10560.00
2022-08-31T11:29:34.910Z,10656.00
2022-08-31T11:30:38.606Z,10648.00
2022-08-31T11:31:36.029Z,10404.00
2022-08-31T11:32:34.882Z,10340.00
2022-08-31T11:33:34.878Z,10384.00
2022-08-31T11:34:34.867Z,10108.00
2022-08-31T11:35:34.859Z,10200.00
2022-08-31T11:36:35.879Z,10464.00
2022-08-31T11:37:34.848Z,10660.00
2022-08-31T11:38:34.836Z,10936.00
2022-08-31T11:39:34.832Z,10980.00
2022-08-31T11:40:34.911Z,10848.00
2022-08-31T11:41:34.814Z,10688.00
2022-08-31T11:42:34.806Z,10752.00
2022-08-31T11:43:34.803Z,10660.00
2022-08-31T11:44:34.795Z,10616.00
2022-08-31T11:45:34.819Z,10500.00
2022-08-31T11:46:34.810Z,10364.00
2022-08-31T11:47:34.785Z,10352.00
2022-08-31T11:48:34.760Z,10468.00
2022-08-31T11:49:34.750Z,10556.00
2022-08-31T11:50:34.776Z,10636.00
2022-08-31T11:51:40.091Z,10712.00
2022-08-31T11:52:36.728Z,10740.00
2022-08-31T11:53:34.726Z,10764.00
2022-08-31T11:54:34.711Z,10704.00
2022-08-31T11:55:34.733Z,10604.00
2022-08-31T11:56:34.698Z,10556.00
2022-08-31T11:57:37.757Z,10500.00
2022-08-31T11:58:35.682Z,10288.00
2022-08-31T11:59:34.673Z,9972.00
2022-08-31T12:00:34.722Z,9748.00
2022-08-31T12:01:34.684Z,9612.00
2022-08-31T12:02:34.729Z,9580.00
2022-08-31T12:03:34.642Z,9632.00
2022-08-31T12:04:34.635Z,9464.00
2022-08-31T12:05:34.673Z,9400.00
2022-08-31T12:06:34.644Z,9344.00
2022-08-31T12:07:34.624Z,9436.00
2022-08-31T12:08:34.598Z,9560.00
2022-08-31T12:09:34.594Z,9672.00
2022-08-31T12:10:34.587Z,9680.00
2022-08-31T12:11:34.603Z,9704.00
2022-08-31T12:12:34.572Z,9800.00
2022-08-31T12:13:34.563Z,9812.00
2022-08-31T12:14:34.558Z,9888.00
2022-08-31T12:15:34.582Z,9848.00
2022-08-31T12:16:34.562Z,9868.00
2022-08-31T12:17:34.537Z,9792.00
2022-08-31T12:18:34.910Z,9672.00
2022-08-31T12:19:34.517Z,9548.00
2022-08-31T12:20:34.556Z,9428.00
2022-08-31T12:21:34.503Z,9272.00
2022-08-31T12:22:34.492Z,9200.00
2022-08-31T12:23:34.642Z,9204.00
2022-08-31T12:24:34.475Z,9120.00